sensor_id;sensor_type;location;lat;lon;timestamp;pressure;altitude;pressure_sealevel;temperature;humidity
7407;BME280;3745;56.964;24.128;2023-05-10T00:02:07;102288.06;;;11.35;98.29
7407;BME280;3745;56.964;24.128;2023-05-10T00:04:35;102287.94;;;11.32;99.49
7407;BME280;3745;56.964;24.128;2023-05-10T00:07:01;102172.34;;;10.62;100.00
7407;BME280;3745;56.964;24.128;2023-05-10T00:09:26;102293.66;;;11.25;100.00
7407;BME280;3745;56.964;24.128;2023-05-10T00:11:52;102288.28;;;11.18;100.00
7407;BME280;3745;56.964;24.128;2023-05-10T00:14:18;102260.56;;;10.97;100.00
7407;BME280;3745;56.964;24.128;2023-05-10T00:16:44;102147.66;;;10.32;100.00
7407;BME280;3745;56.964;24.128;2023-05-10T00:19:09;102281.81;;;11.02;100.00
7407;BME280;3745;56.964;24.128;2023-05-10T00:21:35;102298.88;;;11.06;100.00
7407;BME280;3745;56.964;24.128;2023-05-10T00:24:01;102297.03;;;11.02;100.00
7407;BME280;3745;56.964;24.128;2023-05-10T00:26:28;102303.13;;;11.07;100.00
7407;BME280;3745;56.964;24.128;2023-05-10T00:28:54;102240.13;;;10.69;100.00
7407;BME280;3745;56.964;24.128;2023-05-10T00:31:20;102227.69;;;10.53;100.00
7407;BME280;3745;56.964;24.128;2023-05-10T00:33:45;102300.16;;;10.95;100.00
7407;BME280;3745;56.964;24.128;2023-05-10T00:36:11;102225.78;;;10.46;100.00
7407;BME280;3745;56.964;24.128;2023-05-10T00:38:37;102263.00;;;10.72;100.00
7407;BME280;3745;56.964;24.128;2023-05-10T00:41:06;102274.69;;;10.68;100.00
7407;BME280;3745;56.964;24.128;2023-05-10T00:43:31;102296.25;;;10.81;100.00
7407;BME280;3745;56.964;24.128;2023-05-10T00:45:57;102301.56;;;10.87;100.00
7407;BME280;3745;56.964;24.128;2023-05-10T00:48:23;102206.31;;;10.22;100.00
7407;BME280;3745;56.964;24.128;2023-05-10T00:50:49;102305.16;;;10.70;100.00
7407;BME280;3745;56.964;24.128;2023-05-10T00:53:15;102221.28;;;10.16;100.00
7407;BME280;3745;56.964;24.128;2023-05-10T00:55:41;102306.13;;;10.73;100.00
7407;BME280;3745;56.964;24.128;2023-05-10T00:58:07;102245.69;;;10.37;100.00
7407;BME280;3745;56.964;24.128;2023-05-10T01:00:33;102238.66;;;10.29;100.00
7407;BME280;3745;56.964;24.128;2023-05-10T01:02:59;102162.81;;;9.88;100.00
7407;BME280;3745;56.964;24.128;2023-05-10T01:05:25;102280.28;;;10.60;100.00
7407;BME280;3745;56.964;24.128;2023-05-10T01:07:52;102251.34;;;10.31;100.00
7407;BME280;3745;56.964;24.128;2023-05-10T01:10:18;102303.22;;;10.64;100.00
7407;BME280;3745;56.964;24.128;2023-05-10T01:12:46;102303.06;;;10.60;100.00
7407;BME280;3745;56.964;24.128;2023-05-10T01:15:16;102277.19;;;10.45;100.00
7407;BME280;3745;56.964;24.128;2023-05-10T01:17:46;102307.13;;;10.55;100.00
7407;BME280;3745;56.964;24.128;2023-05-10T01:20:13;102307.00;;;10.52;100.00
7407;BME280;3745;56.964;24.128;2023-05-10T01:28:43;102307.56;;;10.45;100.00
7407;BME280;3745;56.964;24.128;2023-05-10T01:31:49;102304.16;;;10.44;100.00
7407;BME280;3745;56.964;24.128;2023-05-10T01:34:23;102301.69;;;10.46;100.00
7407;BME280;3745;56.964;24.128;2023-05-10T01:36:59;102300.41;;;10.34;100.00
7407;BME280;3745;56.964;24.128;2023-05-10T01:39:40;102297.09;;;10.36;100.00
7407;BME280;3745;56.964;24.128;2023-05-10T01:42:11;102298.94;;;10.40;100.00
7407;BME280;3745;56.964;24.128;2023-05-10T01:47:26;102301.09;;;10.30;100.00
7407;BME280;3745;56.964;24.128;2023-05-10T01:49:56;102261.25;;;10.04;100.00
7407;BME280;3745;56.964;24.128;2023-05-10T01:52:27;102304.44;;;10.29;100.00
7407;BME280;3745;56.964;24.128;2023-05-10T01:55:07;102303.47;;;10.26;100.00
7407;BME280;3745;56.964;24.128;2023-05-10T01:57:35;102256.69;;;9.96;100.00
7407;BME280;3745;56.964;24.128;2023-05-10T02:00:06;102264.56;;;10.03;100.00
7407;BME280;3745;56.964;24.128;2023-05-10T02:02:36;102259.41;;;10.00;100.00
7407;BME280;3745;56.964;24.128;2023-05-10T02:05:07;102301.69;;;10.23;100.00
7407;BME280;3745;56.964;24.128;2023-05-10T02:07:39;102263.75;;;10.03;100.00
7407;BME280;3745;56.964;24.128;2023-05-10T02:10:06;102300.13;;;10.27;100.00
7407;BME280;3745;56.964;24.128;2023-05-10T02:12:39;102276.66;;;10.10;100.00
7407;BME280;3745;56.964;24.128;2023-05-10T02:15:10;102156.41;;;9.33;100.00
7407;BME280;3745;56.964;24.128;2023-05-10T02:17:39;102260.78;;;9.92;100.00
7407;BME280;3745;56.964;24.128;2023-05-10T02:20:16;102265.84;;;9.92;100.00
7407;BME280;3745;56.964;24.128;2023-05-10T02:22:44;102229.59;;;9.71;100.00
7407;BME280;3745;56.964;24.128;2023-05-10T02:25:15;102145.81;;;9.20;100.00
7407;BME280;3745;56.964;24.128;2023-05-10T02:27:43;102313.22;;;10.17;100.00
7407;BME280;3745;56.964;24.128;2023-05-10T02:30:10;102307.28;;;10.16;100.00
7407;BME280;3745;56.964;24.128;2023-05-10T02:32:40;102303.97;;;10.17;100.00
7407;BME280;3745;56.964;24.128;2023-05-10T02:35:10;102310.03;;;10.21;100.00
7407;BME280;3745;56.964;24.128;2023-05-10T02:37:39;102268.47;;;9.95;100.00
7407;BME280;3745;56.964;24.128;2023-05-10T02:40:06;102257.44;;;9.93;100.00
7407;BME280;3745;56.964;24.128;2023-05-10T02:42:35;102304.56;;;10.32;100.00
7407;BME280;3745;56.964;24.128;2023-05-10T02:45:07;102244.09;;;9.97;100.00
7407;BME280;3745;56.964;24.128;2023-05-10T02:47:33;102240.66;;;9.95;100.00
7407;BME280;3745;56.964;24.128;2023-05-10T02:50:02;102287.28;;;10.22;100.00
7407;BME280;3745;56.964;24.128;2023-05-10T02:52:49;102246.31;;;10.10;100.00
7407;BME280;3745;56.964;24.128;2023-05-10T02:55:25;102149.69;;;9.54;100.00
7407;BME280;3745;56.964;24.128;2023-05-10T02:57:56;102311.34;;;10.56;100.00
7407;BME280;3745;56.964;24.128;2023-05-10T03:00:24;102314.63;;;10.53;100.00
7407;BME280;3745;56.964;24.128;2023-05-10T03:02:53;102253.38;;;10.17;100.00
7407;BME280;3745;56.964;24.128;2023-05-10T03:05:22;102250.13;;;10.21;100.00
7407;BME280;3745;56.964;24.128;2023-05-10T03:07:49;102309.75;;;10.58;100.00
7407;BME280;3745;56.964;24.128;2023-05-10T03:10:15;102312.53;;;10.64;100.00
7407;BME280;3745;56.964;24.128;2023-05-10T03:18:24;102321.38;;;10.75;100.00
7407;BME280;3745;56.964;24.128;2023-05-10T03:20:59;102226.69;;;10.25;100.00
7407;BME280;3745;56.964;24.128;2023-05-10T03:24:03;102323.53;;;10.88;100.00
7407;BME280;3745;56.964;24.128;2023-05-10T03:26:31;102261.22;;;10.46;100.00
7407;BME280;3745;56.964;24.128;2023-05-10T03:28:58;102321.91;;;10.90;100.00
7407;BME280;3745;56.964;24.128;2023-05-10T03:31:24;102323.53;;;10.88;100.00
7407;BME280;3745;56.964;24.128;2023-05-10T03:33:51;102323.78;;;10.94;100.00
7407;BME280;3745;56.964;24.128;2023-05-10T03:36:18;102247.38;;;10.38;100.00
7407;BME280;3745;56.964;24.128;2023-05-10T03:38:44;102283.72;;;10.62;100.00
7407;BME280;3745;56.964;24.128;2023-05-10T03:41:09;102255.38;;;10.48;100.00
7407;BME280;3745;56.964;24.128;2023-05-10T03:43:35;102278.66;;;10.62;100.00
7407;BME280;3745;56.964;24.128;2023-05-10T03:46:04;102332.28;;;10.96;100.00
7407;BME280;3745;56.964;24.128;2023-05-10T03:48:32;102299.38;;;10.74;100.00
7407;BME280;3745;56.964;24.128;2023-05-10T03:51:00;102335.31;;;11.10;100.00
7407;BME280;3745;56.964;24.128;2023-05-10T03:53:26;102256.81;;;10.64;100.00
7407;BME280;3745;56.964;24.128;2023-05-10T03:55:52;102328.81;;;11.16;100.00
7407;BME280;3745;56.964;24.128;2023-05-10T03:58:17;102333.38;;;11.26;100.00
7407;BME280;3745;56.964;24.128;2023-05-10T04:00:44;102249.22;;;10.64;100.00
7407;BME280;3745;56.964;24.128;2023-05-10T04:03:16;102298.97;;;10.85;100.00
7407;BME280;3745;56.964;24.128;2023-05-10T04:05:42;102325.63;;;10.98;100.00
7407;BME280;3745;56.964;24.128;2023-05-10T04:08:08;102334.44;;;11.09;100.00
7407;BME280;3745;56.964;24.128;2023-05-10T04:10:34;102343.28;;;11.20;100.00
7407;BME280;3745;56.964;24.128;2023-05-10T04:13:02;102338.31;;;11.23;100.00
7407;BME280;3745;56.964;24.128;2023-05-10T04:15:28;102286.47;;;10.90;100.00
7407;BME280;3745;56.964;24.128;2023-05-10T04:17:54;102347.81;;;11.29;100.00
7407;BME280;3745;56.964;24.128;2023-05-10T04:20:19;102320.22;;;11.13;100.00
7407;BME280;3745;56.964;24.128;2023-05-10T04:22:47;102328.06;;;11.20;100.00
7407;BME280;3745;56.964;24.128;2023-05-10T04:25:13;102350.72;;;11.39;100.00
7407;BME280;3745;56.964;24.128;2023-05-10T04:27:38;102276.44;;;10.93;100.00
7407;BME280;3745;56.964;24.128;2023-05-10T04:30:05;102296.47;;;11.11;100.00
7407;BME280;3745;56.964;24.128;2023-05-10T04:32:30;102328.63;;;11.35;100.00
7407;BME280;3745;56.964;24.128;2023-05-10T04:34:56;102301.13;;;11.22;100.00
7407;BME280;3745;56.964;24.128;2023-05-10T04:37:22;102128.91;;;10.27;100.00
7407;BME280;3745;56.964;24.128;2023-05-10T04:39:48;102356.88;;;11.70;100.00
7407;BME280;3745;56.964;24.128;2023-05-10T04:42:14;102177.34;;;10.60;100.00
7407;BME280;3745;56.964;24.128;2023-05-10T04:44:43;102352.41;;;11.88;100.00
7407;BME280;3745;56.964;24.128;2023-05-10T04:47:08;102345.53;;;11.84;100.00
7407;BME280;3745;56.964;24.128;2023-05-10T04:49:34;102325.44;;;11.90;100.00
7407;BME280;3745;56.964;24.128;2023-05-10T04:52:00;102357.44;;;12.12;100.00
7407;BME280;3745;56.964;24.128;2023-05-10T04:54:25;102207.81;;;11.36;100.00
7407;BME280;3745;56.964;24.128;2023-05-10T04:56:51;102363.88;;;12.27;100.00
7407;BME280;3745;56.964;24.128;2023-05-10T04:59:17;102324.50;;;12.13;100.00
7407;BME280;3745;56.964;24.128;2023-05-10T05:01:42;102291.91;;;12.00;100.00
7407;BME280;3745;56.964;24.128;2023-05-10T05:04:08;102239.09;;;11.87;100.00
7407;BME280;3745;56.964;24.128;2023-05-10T05:06:37;102365.47;;;12.79;100.00
7407;BME280;3745;56.964;24.128;2023-05-10T05:09:02;102331.41;;;12.74;100.00
7407;BME280;3745;56.964;24.128;2023-05-10T05:11:28;102329.88;;;12.79;100.00
7407;BME280;3745;56.964;24.128;2023-05-10T05:13:56;102368.28;;;13.16;100.00
7407;BME280;3745;56.964;24.128;2023-05-10T05:16:27;102371.53;;;13.12;100.00
7407;BME280;3745;56.964;24.128;2023-05-10T05:18:52;102370.97;;;13.22;100.00
7407;BME280;3745;56.964;24.128;2023-05-10T05:21:19;102321.97;;;12.98;100.00
7407;BME280;3745;56.964;24.128;2023-05-10T05:23:45;102351.78;;;13.33;100.00
7407;BME280;3745;56.964;24.128;2023-05-10T05:26:11;102375.22;;;13.53;100.00
7407;BME280;3745;56.964;24.128;2023-05-10T05:28:36;102335.28;;;13.50;100.00
7407;BME280;3745;56.964;24.128;2023-05-10T05:31:04;102289.41;;;13.47;99.40
7407;BME280;3745;56.964;24.128;2023-05-10T05:33:29;102342.72;;;13.76;99.18
7407;BME280;3745;56.964;24.128;2023-05-10T05:35:55;102334.44;;;13.83;99.61
7407;BME280;3745;56.964;24.128;2023-05-10T05:38:20;102324.63;;;13.98;98.54
7407;BME280;3745;56.964;24.128;2023-05-10T05:40:46;102263.03;;;13.77;96.35
7407;BME280;3745;56.964;24.128;2023-05-10T05:43:15;102270.13;;;13.90;97.39
7407;BME280;3745;56.964;24.128;2023-05-10T05:45:40;102318.47;;;14.24;96.75
7407;BME280;3745;56.964;24.128;2023-05-10T05:48:06;102309.34;;;14.34;97.50
7407;BME280;3745;56.964;24.128;2023-05-10T05:50:31;102312.88;;;14.39;97.11
7407;BME280;3745;56.964;24.128;2023-05-10T05:52:57;102253.41;;;14.01;93.57
7407;BME280;3745;56.964;24.128;2023-05-10T05:55:26;102372.72;;;14.95;91.62
7407;BME280;3745;56.964;24.128;2023-05-10T05:57:51;102320.69;;;14.87;92.64
7407;BME280;3745;56.964;24.128;2023-05-10T06:00:17;102336.94;;;14.92;89.72
7407;BME280;3745;56.964;24.128;2023-05-10T06:02:43;102367.72;;;15.01;88.06
7407;BME280;3745;56.964;24.128;2023-05-10T06:05:09;102341.50;;;15.06;87.31
7407;BME280;3745;56.964;24.128;2023-05-10T06:07:35;102360.50;;;15.24;89.64
7407;BME280;3745;56.964;24.128;2023-05-10T06:10:01;102357.16;;;15.25;87.09
7407;BME280;3745;56.964;24.128;2023-05-10T06:12:28;102317.09;;;15.19;85.79
7407;BME280;3745;56.964;24.128;2023-05-10T06:14:53;102358.41;;;15.46;83.08
7407;BME280;3745;56.964;24.128;2023-05-10T06:17:19;102316.97;;;15.13;82.93
7407;BME280;3745;56.964;24.128;2023-05-10T06:19:45;102304.44;;;15.27;81.74
7407;BME280;3745;56.964;24.128;2023-05-10T06:22:10;102326.25;;;15.54;80.54
7407;BME280;3745;56.964;24.128;2023-05-10T06:24:36;102269.53;;;15.24;78.29
7407;BME280;3745;56.964;24.128;2023-05-10T06:27:01;102344.69;;;15.88;77.82
7407;BME280;3745;56.964;24.128;2023-05-10T06:29:27;102368.84;;;16.06;76.78
7407;BME280;3745;56.964;24.128;2023-05-10T06:31:53;102363.13;;;16.21;75.14
7407;BME280;3745;56.964;24.128;2023-05-10T06:34:19;102330.88;;;16.29;73.56
7407;BME280;3745;56.964;24.128;2023-05-10T06:36:45;102274.28;;;16.02;71.28
7407;BME280;3745;56.964;24.128;2023-05-10T06:39:10;102337.25;;;16.58;70.00
7407;BME280;3745;56.964;24.128;2023-05-10T06:41:37;102346.00;;;16.72;68.57
7407;BME280;3745;56.964;24.128;2023-05-10T06:44:03;102305.72;;;16.56;66.78
7407;BME280;3745;56.964;24.128;2023-05-10T06:46:29;102359.13;;;17.00;64.34
7407;BME280;3745;56.964;24.128;2023-05-10T06:48:54;102350.53;;;16.95;63.63
7407;BME280;3745;56.964;24.128;2023-05-10T06:51:20;102285.53;;;16.77;61.78
7407;BME280;3745;56.964;24.128;2023-05-10T06:53:46;102356.91;;;17.28;58.32
7407;BME280;3745;56.964;24.128;2023-05-10T06:56:12;102369.78;;;17.36;60.35
7407;BME280;3745;56.964;24.128;2023-05-10T06:58:38;102366.38;;;17.37;57.01
7407;BME280;3745;56.964;24.128;2023-05-10T07:01:04;102354.50;;;17.45;57.68
7407;BME280;3745;56.964;24.128;2023-05-10T07:03:31;102366.81;;;17.79;56.57
7407;BME280;3745;56.964;24.128;2023-05-10T07:06:03;102363.47;;;17.86;55.53
7407;BME280;3745;56.964;24.128;2023-05-10T07:08:35;102368.69;;;17.99;53.60
7407;BME280;3745;56.964;24.128;2023-05-10T07:11:04;102372.19;;;18.10;51.83
7407;BME280;3745;56.964;24.128;2023-05-10T07:13:33;102363.69;;;18.14;49.56
7407;BME280;3745;56.964;24.128;2023-05-10T07:15:59;102313.91;;;17.84;48.62
7407;BME280;3745;56.964;24.128;2023-05-10T07:18:25;102321.72;;;17.98;47.92
7407;BME280;3745;56.964;24.128;2023-05-10T07:20:51;102326.78;;;17.92;47.74
7407;BME280;3745;56.964;24.128;2023-05-10T07:23:17;102301.88;;;17.71;48.18
7407;BME280;3745;56.964;24.128;2023-05-10T07:25:47;102358.53;;;18.11;46.82
7407;BME280;3745;56.964;24.128;2023-05-10T07:28:14;102365.44;;;18.18;46.94
7407;BME280;3745;56.964;24.128;2023-05-10T07:30:39;102272.75;;;17.60;46.57
7407;BME280;3745;56.964;24.128;2023-05-10T07:33:05;102343.00;;;17.90;46.68
7407;BME280;3745;56.964;24.128;2023-05-10T07:35:31;102360.09;;;17.94;46.76
7407;BME280;3745;56.964;24.128;2023-05-10T07:37:56;102365.31;;;18.06;46.00
7407;BME280;3745;56.964;24.128;2023-05-10T07:40:22;102329.41;;;18.03;46.82
7407;BME280;3745;56.964;24.128;2023-05-10T07:42:48;102366.41;;;18.36;46.70
7407;BME280;3745;56.964;24.128;2023-05-10T07:45:14;102284.19;;;18.05;45.67
7407;BME280;3745;56.964;24.128;2023-05-10T07:47:39;102365.75;;;18.60;44.88
7407;BME280;3745;56.964;24.128;2023-05-10T07:50:06;102324.72;;;18.66;45.26
7407;BME280;3745;56.964;24.128;2023-05-10T07:52:32;102317.91;;;18.74;42.90
7407;BME280;3745;56.964;24.128;2023-05-10T07:54:57;102259.56;;;18.37;43.44
7407;BME280;3745;56.964;24.128;2023-05-10T07:57:23;102364.16;;;18.86;43.19
7407;BME280;3745;56.964;24.128;2023-05-10T07:59:50;102328.16;;;18.71;42.93
7407;BME280;3745;56.964;24.128;2023-05-10T08:02:15;102290.50;;;18.61;42.02
7407;BME280;3745;56.964;24.128;2023-05-10T08:04:41;102364.19;;;18.99;42.64
7407;BME280;3745;56.964;24.128;2023-05-10T08:07:06;102213.28;;;18.07;43.23
7407;BME280;3745;56.964;24.128;2023-05-10T08:09:32;102339.28;;;18.72;42.04
7407;BME280;3745;56.964;24.128;2023-05-10T08:11:58;102355.59;;;18.87;41.44
7407;BME280;3745;56.964;24.128;2023-05-10T08:14:25;102284.47;;;18.50;40.28
7407;BME280;3745;56.964;24.128;2023-05-10T08:16:51;102345.31;;;18.81;38.60
7407;BME280;3745;56.964;24.128;2023-05-10T08:19:17;102348.78;;;18.99;38.60
7407;BME280;3745;56.964;24.128;2023-05-10T08:21:46;102324.84;;;18.93;40.39
7407;BME280;3745;56.964;24.128;2023-05-10T08:24:12;102356.59;;;19.24;39.69
7407;BME280;3745;56.964;24.128;2023-05-10T08:26:38;102271.72;;;18.71;38.50
7407;BME280;3745;56.964;24.128;2023-05-10T08:29:04;102331.75;;;19.14;39.17
7407;BME280;3745;56.964;24.128;2023-05-10T08:31:29;102324.06;;;19.35;39.02
7407;BME280;3745;56.964;24.128;2023-05-10T08:33:55;102271.84;;;19.29;38.46
7407;BME280;3745;56.964;24.128;2023-05-10T08:36:20;102340.41;;;19.75;38.69
7407;BME280;3745;56.964;24.128;2023-05-10T08:38:52;102246.22;;;19.38;38.88
7407;BME280;3745;56.964;24.128;2023-05-10T08:41:22;102338.72;;;19.83;37.68
7407;BME280;3745;56.964;24.128;2023-05-10T08:43:50;102350.69;;;19.60;37.08
7407;BME280;3745;56.964;24.128;2023-05-10T08:46:18;102294.13;;;19.33;37.37
7407;BME280;3745;56.964;24.128;2023-05-10T08:48:45;102342.13;;;19.58;36.85
7407;BME280;3745;56.964;24.128;2023-05-10T08:51:19;102345.56;;;19.72;36.85
7407;BME280;3745;56.964;24.128;2023-05-10T08:53:47;102327.56;;;19.78;36.81
7407;BME280;3745;56.964;24.128;2023-05-10T08:56:13;102306.16;;;19.67;37.17
7407;BME280;3745;56.964;24.128;2023-05-10T08:58:39;102328.44;;;19.89;37.79
7407;BME280;3745;56.964;24.128;2023-05-10T09:01:05;102342.13;;;20.00;36.92
7407;BME280;3745;56.964;24.128;2023-05-10T09:03:31;102334.44;;;19.82;35.86
7407;BME280;3745;56.964;24.128;2023-05-10T09:05:57;102330.13;;;19.84;35.32
7407;BME280;3745;56.964;24.128;2023-05-10T09:08:24;102333.56;;;19.89;35.58
7407;BME280;3745;56.964;24.128;2023-05-10T09:10:54;102253.03;;;19.39;35.74
7407;BME280;3745;56.964;24.128;2023-05-10T09:13:21;102244.53;;;19.49;36.70
7407;BME280;3745;56.964;24.128;2023-05-10T09:15:48;102299.31;;;20.02;36.21
7407;BME280;3745;56.964;24.128;2023-05-10T09:18:14;102336.97;;;20.37;37.27
7407;BME280;3745;56.964;24.128;2023-05-10T09:20:40;102262.41;;;20.13;36.37
7407;BME280;3745;56.964;24.128;2023-05-10T09:23:06;102318.00;;;20.68;36.64
7407;BME280;3745;56.964;24.128;2023-05-10T09:25:31;102301.66;;;20.78;36.87
7407;BME280;3745;56.964;24.128;2023-05-10T09:27:59;102329.88;;;20.98;35.42
7407;BME280;3745;56.964;24.128;2023-05-10T09:30:26;102323.22;;;20.44;35.85
7407;BME280;3745;56.964;24.128;2023-05-10T09:32:52;102321.53;;;20.37;35.98
7407;BME280;3745;56.964;24.128;2023-05-10T09:35:20;102295.78;;;20.43;36.43
7407;BME280;3745;56.964;24.128;2023-05-10T09:37:48;102317.94;;;20.83;36.19
7407;BME280;3745;56.964;24.128;2023-05-10T09:40:26;102317.88;;;20.95;36.03
7407;BME280;3745;56.964;24.128;2023-05-10T09:42:59;102314.38;;;21.12;36.02
7407;BME280;3745;56.964;24.128;2023-05-10T09:45:27;102253.56;;;20.83;35.34
7407;BME280;3745;56.964;24.128;2023-05-10T09:47:53;102309.19;;;21.21;34.81
7407;BME280;3745;56.964;24.128;2023-05-10T09:50:19;102282.72;;;20.94;35.39
7407;BME280;3745;56.964;24.128;2023-05-10T09:52:50;102270.94;;;20.45;35.76
7407;BME280;3745;56.964;24.128;2023-05-10T09:55:19;102305.09;;;20.77;35.66
7407;BME280;3745;56.964;24.128;2023-05-10T09:57:46;102262.31;;;20.52;36.35
7407;BME280;3745;56.964;24.128;2023-05-10T10:00:19;102218.56;;;20.55;36.03
7407;BME280;3745;56.964;24.128;2023-05-10T10:02:58;102280.78;;;21.30;34.81
7407;BME280;3745;56.964;24.128;2023-05-10T10:05:28;102259.41;;;21.19;34.42
7407;BME280;3745;56.964;24.128;2023-05-10T10:07:55;102208.16;;;20.79;33.76
7407;BME280;3745;56.964;24.128;2023-05-10T10:10:22;102293.53;;;21.45;34.73
7407;BME280;3745;56.964;24.128;2023-05-10T10:12:48;102235.28;;;21.32;34.50
7407;BME280;3745;56.964;24.128;2023-05-10T10:15:14;102283.09;;;21.63;34.14
7407;BME280;3745;56.964;24.128;2023-05-10T10:17:40;102291.44;;;21.95;34.17
7407;BME280;3745;56.964;24.128;2023-05-10T10:20:09;102263.81;;;22.03;33.20
7407;BME280;3745;56.964;24.128;2023-05-10T10:22:36;102276.66;;;22.11;32.55
7407;BME280;3745;56.964;24.128;2023-05-10T10:25:03;102277.84;;;21.72;32.14
7407;BME280;3745;56.964;24.128;2023-05-10T10:35:48;102264.31;;;21.49;31.99
7407;BME280;3745;56.964;24.128;2023-05-10T10:38:13;102255.53;;;21.71;32.80
7407;BME280;3745;56.964;24.128;2023-05-10T10:40:39;102188.69;;;21.56;32.93
7407;BME280;3745;56.964;24.128;2023-05-10T10:43:25;102257.78;;;22.07;33.11
7407;BME280;3745;56.964;24.128;2023-05-10T10:46:15;102243.03;;;22.19;33.10
7407;BME280;3745;56.964;24.128;2023-05-10T10:48:49;102260.38;;;22.04;32.46
7407;BME280;3745;56.964;24.128;2023-05-10T10:51:16;102257.00;;;22.02;32.22
7407;BME280;3745;56.964;24.128;2023-05-10T10:53:43;102228.50;;;22.11;32.22
7407;BME280;3745;56.964;24.128;2023-05-10T10:56:11;102256.56;;;22.39;32.25
7407;BME280;3745;56.964;24.128;2023-05-10T10:58:39;102202.88;;;21.98;31.74
7407;BME280;3745;56.964;24.128;2023-05-10T11:01:18;102211.16;;;21.39;31.91
7407;BME280;3745;56.964;24.128;2023-05-10T11:06:32;102212.44;;;21.88;32.03
7407;BME280;3745;56.964;24.128;2023-05-10T11:08:59;102226.31;;;21.71;32.12
7407;BME280;3745;56.964;24.128;2023-05-10T11:11:31;102169.75;;;21.57;32.74
7407;BME280;3745;56.964;24.128;2023-05-10T11:14:03;102190.19;;;21.75;31.73
7407;BME280;3745;56.964;24.128;2023-05-10T11:16:40;102209.72;;;22.00;32.86
7407;BME280;3745;56.964;24.128;2023-05-10T11:19:13;102223.97;;;22.32;32.86
7407;BME280;3745;56.964;24.128;2023-05-10T11:22:12;102198.13;;;22.35;31.63
7407;BME280;3745;56.964;24.128;2023-05-10T11:24:39;102204.41;;;22.12;32.23
7407;BME280;3745;56.964;24.128;2023-05-10T11:27:05;102207.66;;;22.30;32.12
7407;BME280;3745;56.964;24.128;2023-05-10T11:29:31;102205.06;;;22.30;31.58
7407;BME280;3745;56.964;24.128;2023-05-10T11:31:58;102223.97;;;22.32;32.51
7407;BME280;3745;56.964;24.128;2023-05-10T11:34:29;102222.28;;;22.28;32.49
7407;BME280;3745;56.964;24.128;2023-05-10T11:36:56;102222.31;;;22.25;31.81
7407;BME280;3745;56.964;24.128;2023-05-10T11:39:35;102224.66;;;21.68;32.75
7407;BME280;3745;56.964;24.128;2023-05-10T11:42:00;102217.81;;;21.61;33.26
7407;BME280;3745;56.964;24.128;2023-05-10T11:44:32;102125.56;;;21.10;32.43
7407;BME280;3745;56.964;24.128;2023-05-10T11:47:02;102195.94;;;21.12;32.21
7407;BME280;3745;56.964;24.128;2023-05-10T11:49:28;102120.75;;;20.61;32.64
7407;BME280;3745;56.964;24.128;2023-05-10T11:52:03;102209.50;;;21.29;33.01
7407;BME280;3745;56.964;24.128;2023-05-10T11:54:29;102185.44;;;21.33;33.10
7407;BME280;3745;56.964;24.128;2023-05-10T11:56:56;102100.78;;;20.92;33.42
7407;BME280;3745;56.964;24.128;2023-05-10T11:59:21;102211.81;;;21.62;32.28
7407;BME280;3745;56.964;24.128;2023-05-10T12:01:48;102210.94;;;21.60;32.56
7407;BME280;3745;56.964;24.128;2023-05-10T12:04:14;102177.78;;;21.28;32.26
7407;BME280;3745;56.964;24.128;2023-05-10T12:06:40;102178.63;;;21.26;32.22
7407;BME280;3745;56.964;24.128;2023-05-10T12:09:07;102207.75;;;21.37;32.48
7407;BME280;3745;56.964;24.128;2023-05-10T12:11:37;102215.31;;;21.55;32.65
7407;BME280;3745;56.964;24.128;2023-05-10T12:14:04;102168.28;;;21.35;32.56
7407;BME280;3745;56.964;24.128;2023-05-10T12:16:30;102179.44;;;21.32;33.41
7407;BME280;3745;56.964;24.128;2023-05-10T12:19:00;102168.41;;;21.17;34.07
7407;BME280;3745;56.964;24.128;2023-05-10T12:21:28;102183.88;;;21.14;34.72
7407;BME280;3745;56.964;24.128;2023-05-10T12:23:56;102148.03;;;20.83;34.76
7407;BME280;3745;56.964;24.128;2023-05-10T12:26:24;102188.97;;;21.20;34.73
7407;BME280;3745;56.964;24.128;2023-05-10T12:28:53;102184.75;;;21.08;33.89
7407;BME280;3745;56.964;24.128;2023-05-10T12:31:19;102163.47;;;20.86;34.44
7407;BME280;3745;56.964;24.128;2023-05-10T12:33:45;102153.22;;;20.80;34.94
7407;BME280;3745;56.964;24.128;2023-05-10T12:36:16;102121.53;;;20.74;35.14
7407;BME280;3745;56.964;24.128;2023-05-10T12:38:43;102182.13;;;21.22;34.06
7407;BME280;3745;56.964;24.128;2023-05-10T12:41:14;102091.53;;;20.68;33.91
7407;BME280;3745;56.964;24.128;2023-05-10T12:43:40;102163.25;;;21.17;34.00
7407;BME280;3745;56.964;24.128;2023-05-10T12:46:06;102180.28;;;21.33;33.48
7407;BME280;3745;56.964;24.128;2023-05-10T12:48:33;102183.75;;;21.29;33.30
7407;BME280;3745;56.964;24.128;2023-05-10T12:51:00;102182.09;;;21.23;33.07
7407;BME280;3745;56.964;24.128;2023-05-10T12:53:26;102154.59;;;21.27;33.51
7407;BME280;3745;56.964;24.128;2023-05-10T12:55:52;101959.91;;;20.15;33.05
7407;BME280;3745;56.964;24.128;2023-05-10T12:58:18;102026.47;;;20.57;33.39
7407;BME280;3745;56.964;24.128;2023-05-10T13:00:45;102080.94;;;21.04;33.70
7407;BME280;3745;56.964;24.128;2023-05-10T13:03:11;102135.28;;;21.67;33.62
7407;BME280;3745;56.964;24.128;2023-05-10T13:05:36;102075.47;;;21.41;33.37
7407;BME280;3745;56.964;24.128;2023-05-10T13:08:02;102136.94;;;21.74;34.13
7407;BME280;3745;56.964;24.128;2023-05-10T13:10:30;102131.00;;;21.68;33.55
7407;BME280;3745;56.964;24.128;2023-05-10T13:12:57;102130.06;;;21.73;32.86
7407;BME280;3745;56.964;24.128;2023-05-10T13:15:23;102174.53;;;21.93;32.64
7407;BME280;3745;56.964;24.128;2023-05-10T13:17:48;102099.34;;;21.55;31.84
7407;BME280;3745;56.964;24.128;2023-05-10T13:20:14;102133.50;;;21.72;31.88
7407;BME280;3745;56.964;24.128;2023-05-10T13:22:41;102168.69;;;21.76;32.64
7407;BME280;3745;56.964;24.128;2023-05-10T13:25:07;102161.88;;;21.69;33.52
7407;BME280;3745;56.964;24.128;2023-05-10T13:27:36;102056.28;;;20.82;33.26